createdAt,value
2018-07-03T00:00:48.197Z,99.90
2018-07-03T00:03:17.352Z,99.90
2018-07-03T00:05:46.512Z,99.90
2018-07-03T00:08:15.627Z,99.90
2018-07-03T00:10:44.798Z,99.90
2018-07-03T00:13:13.949Z,99.90
2018-07-03T00:15:43.580Z,99.90
2018-07-03T00:18:12.817Z,99.90
2018-07-03T00:20:41.976Z,99.90
2018-07-03T00:23:11.079Z,99.90
2018-07-03T00:25:40.253Z,99.90
2018-07-03T00:28:09.363Z,99.90
2018-07-03T00:30:38.510Z,99.90
2018-07-03T00:33:07.792Z,99.90
2018-07-03T00:35:36.952Z,99.90
2018-07-03T00:38:06.069Z,99.90
2018-07-03T00:40:35.237Z,99.90
2018-07-03T00:43:04.347Z,99.90
2018-07-03T00:45:33.494Z,99.90
2018-07-03T00:48:02.647Z,99.90
2018-07-03T00:50:31.807Z,99.90
2018-07-03T00:53:00.956Z,99.90
2018-07-03T00:55:30.152Z,99.90
2018-07-03T00:57:59.303Z,99.90
2018-07-03T01:00:35.060Z,99.90
2018-07-03T01:03:04.807Z,99.90
2018-07-03T01:05:34.233Z,99.90
2018-07-03T01:08:03.406Z,99.90
2018-07-03T01:10:32.564Z,99.90
2018-07-03T01:13:01.685Z,99.90
2018-07-03T01:15:30.884Z,99.90
2018-07-03T01:18:00.009Z,99.90
2018-07-03T01:20:29.133Z,99.90
2018-07-03T01:22:58.287Z,99.90
2018-07-03T01:25:27.431Z,99.90
2018-07-03T01:27:56.524Z,99.90
2018-07-03T01:30:25.661Z,99.90
2018-07-03T01:32:54.818Z,99.90
2018-07-03T01:35:23.968Z,99.90
2018-07-03T01:37:53.138Z,99.90
2018-07-03T01:40:22.300Z,99.90
2018-07-03T01:42:51.417Z,99.90
2018-07-03T01:45:20.602Z,99.90
2018-07-03T01:47:49.819Z,99.90
2018-07-03T01:50:19.356Z,99.90
2018-07-03T01:52:48.485Z,99.90
2018-07-03T01:55:17.661Z,99.90
2018-07-03T01:57:46.815Z,99.90
2018-07-03T02:00:15.964Z,99.90
2018-07-03T02:02:45.193Z,99.90
2018-07-03T02:05:14.365Z,99.90
2018-07-03T02:07:43.501Z,99.90
2018-07-03T02:10:12.681Z,99.90
2018-07-03T02:12:41.837Z,99.90
2018-07-03T02:15:11.050Z,99.90
2018-07-03T02:17:40.272Z,99.90
2018-07-03T02:20:09.467Z,99.90
2018-07-03T02:22:38.616Z,99.90
2018-07-03T02:25:07.803Z,99.90
2018-07-03T02:27:37.165Z,99.90
2018-07-03T02:30:06.470Z,99.90
2018-07-03T02:32:35.647Z,99.90
2018-07-03T02:35:04.973Z,99.90
2018-07-03T02:37:34.106Z,99.90
2018-07-03T02:40:03.279Z,99.90
2018-07-03T02:42:32.393Z,99.90
2018-07-03T02:45:01.588Z,99.90
2018-07-03T02:47:30.713Z,99.90
2018-07-03T02:49:59.838Z,99.90
2018-07-03T02:52:28.985Z,99.90
2018-07-03T02:54:58.377Z,99.90
2018-07-03T02:57:27.520Z,99.90
2018-07-03T02:59:56.701Z,99.90
2018-07-03T03:02:25.880Z,99.90
2018-07-03T03:04:55.043Z,99.90
2018-07-03T03:07:24.490Z,99.90
2018-07-03T03:09:53.636Z,99.90
2018-07-03T03:12:22.872Z,99.90
2018-07-03T03:14:52.095Z,99.90
2018-07-03T03:17:21.274Z,99.90
2018-07-03T03:19:50.432Z,99.90
2018-07-03T03:22:19.610Z,99.90
2018-07-03T03:24:48.812Z,99.90
2018-07-03T03:27:17.985Z,99.90
2018-07-03T03:29:47.123Z,99.90
2018-07-03T03:32:16.380Z,99.90
2018-07-03T03:34:45.766Z,99.90
2018-07-03T03:37:14.920Z,99.90
2018-07-03T03:39:44.053Z,99.90
2018-07-03T03:42:13.212Z,99.90
2018-07-03T03:44:42.346Z,99.90
2018-07-03T03:47:11.488Z,99.90
2018-07-03T03:49:40.652Z,99.90
2018-07-03T03:52:10.849Z,99.90
2018-07-03T03:54:40.120Z,99.90
2018-07-03T03:57:09.300Z,99.90
2018-07-03T03:59:38.441Z,99.90
2018-07-03T04:02:07.604Z,99.90
2018-07-03T04:04:36.760Z,99.90
2018-07-03T04:07:05.945Z,99.90
2018-07-03T04:09:35.076Z,99.90
2018-07-03T04:12:04.319Z,99.90
2018-07-03T04:14:33.492Z,99.90
2018-07-03T04:17:02.696Z,99.90
2018-07-03T04:19:31.838Z,99.90
2018-07-03T04:22:01.003Z,99.90
2018-07-03T04:24:30.117Z,99.90
2018-07-03T04:26:59.261Z,99.90
2018-07-03T04:29:28.423Z,99.90
2018-07-03T04:31:57.567Z,99.90
2018-07-03T04:34:26.726Z,99.90
2018-07-03T04:36:56.106Z,99.90
2018-07-03T04:39:25.337Z,99.90
2018-07-03T04:41:54.470Z,99.90
2018-07-03T04:44:23.639Z,99.90
2018-07-03T04:46:52.858Z,99.90
2018-07-03T04:49:22.052Z,99.90
2018-07-03T04:51:51.227Z,99.90
2018-07-03T04:54:20.532Z,99.90
2018-07-03T04:56:49.820Z,99.90
2018-07-03T04:59:18.999Z,99.90
2018-07-03T05:01:48.237Z,99.90
2018-07-03T05:04:17.403Z,99.90
2018-07-03T05:06:46.560Z,99.90
2018-07-03T05:09:16.003Z,99.90
2018-07-03T05:11:45.172Z,99.90
2018-07-03T05:14:14.339Z,99.90
2018-07-03T05:16:43.540Z,99.90
2018-07-03T05:19:12.721Z,99.90
2018-07-03T05:21:41.937Z,99.90
2018-07-03T05:24:11.089Z,99.90
2018-07-03T05:26:40.316Z,99.90
2018-07-03T05:29:09.506Z,99.90
2018-07-03T05:31:38.779Z,99.90
2018-07-03T05:34:07.912Z,99.90
2018-07-03T05:36:37.332Z,99.90
2018-07-03T05:39:08.971Z,99.90
2018-07-03T05:41:38.368Z,99.90
2018-07-03T05:44:07.849Z,99.90
2018-07-03T05:46:37.607Z,99.90
2018-07-03T05:49:06.757Z,99.90
2018-07-03T05:51:35.910Z,99.90
2018-07-03T05:54:05.120Z,99.90
2018-07-03T05:56:34.384Z,99.90
2018-07-03T05:59:03.543Z,99.90
2018-07-03T06:01:32.708Z,99.90
2018-07-03T06:04:01.862Z,99.90
2018-07-03T06:06:31.013Z,99.90
2018-07-03T06:09:00.177Z,99.90
2018-07-03T06:11:29.355Z,99.90
2018-07-03T06:13:58.553Z,99.90
2018-07-03T06:16:27.734Z,99.90
2018-07-03T06:18:56.875Z,99.90
2018-07-03T06:21:26.076Z,99.90
2018-07-03T06:23:55.219Z,99.90
2018-07-03T06:26:24.409Z,99.90
2018-07-03T06:28:53.618Z,99.90
2018-07-03T06:31:22.883Z,99.90
2018-07-03T06:33:52.059Z,99.90
2018-07-03T06:36:21.256Z,99.90
2018-07-03T06:38:50.414Z,99.90
2018-07-03T06:41:19.666Z,99.90
2018-07-03T06:43:49.000Z,99.90
2018-07-03T06:46:18.181Z,99.90
2018-07-03T06:48:47.366Z,99.90
2018-07-03T06:51:16.568Z,99.90
2018-07-03T06:53:45.758Z,99.90
2018-07-03T06:56:14.918Z,99.90
2018-07-03T06:58:44.065Z,99.90
2018-07-03T07:01:13.244Z,99.90
2018-07-03T07:03:42.418Z,99.90
2018-07-03T07:06:11.608Z,99.90
2018-07-03T07:08:40.855Z,99.90
2018-07-03T07:11:10.013Z,99.90
2018-07-03T07:13:39.186Z,99.90
2018-07-03T07:16:08.310Z,99.90
2018-07-03T07:18:37.505Z,99.90
2018-07-03T07:21:06.676Z,99.90
2018-07-03T07:23:35.908Z,99.90
2018-07-03T07:26:05.199Z,99.90
2018-07-03T07:28:34.449Z,99.90
2018-07-03T07:31:03.609Z,99.90
2018-07-03T07:33:32.832Z,99.90
2018-07-03T07:36:02.064Z,99.90
2018-07-03T07:38:31.328Z,98.20
2018-07-03T07:41:00.516Z,96.90
2018-07-03T07:43:29.715Z,95.60
2018-07-03T07:45:58.853Z,94.20
2018-07-03T07:48:28.061Z,93.10
2018-07-03T07:50:57.193Z,91.60
2018-07-03T07:53:26.369Z,91.50
2018-07-03T07:55:55.537Z,91.00
2018-07-03T07:58:24.735Z,91.50
2018-07-03T08:00:53.902Z,90.90
2018-07-03T08:03:23.081Z,89.20
2018-07-03T08:05:52.349Z,89.30
2018-07-03T08:08:21.525Z,89.50
2018-07-03T08:10:50.802Z,87.50
2018-07-03T08:13:20.014Z,87.40
2018-07-03T08:15:49.140Z,88.00
2018-07-03T08:18:18.337Z,88.30
2018-07-03T08:20:47.495Z,86.90
2018-07-03T08:23:16.696Z,85.30
2018-07-03T08:25:45.948Z,84.80
2018-07-03T08:28:15.115Z,86.00
2018-07-03T08:30:44.265Z,84.10
2018-07-03T08:33:14.546Z,82.70
2018-07-03T08:35:43.758Z,82.80
2018-07-03T08:38:12.973Z,81.70
2018-07-03T08:40:42.139Z,82.00
2018-07-03T08:43:11.315Z,82.10
2018-07-03T08:45:40.552Z,84.80
2018-07-03T08:48:09.809Z,84.00
2018-07-03T08:50:38.951Z,81.70
2018-07-03T08:53:08.316Z,81.20
2018-07-03T08:55:37.516Z,80.60
2018-07-03T08:58:06.660Z,77.50
2018-07-03T09:00:35.826Z,78.70
2018-07-03T09:03:05.000Z,83.00
2018-07-03T09:05:34.227Z,77.80
2018-07-03T09:08:03.409Z,76.30
2018-07-03T09:10:32.641Z,78.00
2018-07-03T09:13:01.797Z,79.20
2018-07-03T09:15:31.006Z,81.00
2018-07-03T09:18:00.451Z,81.90
2018-07-03T09:23:29.570Z,81.60
2018-07-03T09:25:58.736Z,81.30
2018-07-03T09:28:27.876Z,80.60
2018-07-03T09:30:57.015Z,80.80
2018-07-03T09:33:26.174Z,81.50
2018-07-03T09:35:55.312Z,81.40
2018-07-03T09:38:24.489Z,82.40
2018-07-03T09:40:53.702Z,80.10
2018-07-03T09:43:22.838Z,83.90
2018-07-03T09:45:52.029Z,82.80
2018-07-03T09:48:21.245Z,80.20
2018-07-03T09:50:50.642Z,80.80
2018-07-03T09:53:19.762Z,81.20
2018-07-03T09:55:48.961Z,80.50
2018-07-03T09:58:18.109Z,81.50
2018-07-03T10:00:52.435Z,80.20
2018-07-03T10:03:21.543Z,80.70
2018-07-03T10:05:50.736Z,81.50
2018-07-03T10:08:19.888Z,82.40
2018-07-03T10:10:49.106Z,80.80
2018-07-03T10:13:18.237Z,81.90
2018-07-03T10:15:47.450Z,81.10
2018-07-03T10:18:16.605Z,79.60
2018-07-03T10:20:45.774Z,80.10
2018-07-03T10:23:14.924Z,79.70
2018-07-03T10:25:44.070Z,79.40
2018-07-03T10:28:13.234Z,83.80
2018-07-03T10:30:42.372Z,78.30
2018-07-03T10:33:11.613Z,81.70
2018-07-03T10:35:40.787Z,81.60
2018-07-03T10:38:09.935Z,78.10
2018-07-03T10:40:39.093Z,82.30
2018-07-03T10:43:08.292Z,80.80
2018-07-03T10:45:37.456Z,77.50
2018-07-03T10:48:06.749Z,82.60
2018-07-03T10:50:36.529Z,80.50
2018-07-03T10:53:05.802Z,79.20
2018-07-03T10:55:35.179Z,84.00
2018-07-03T10:58:04.325Z,81.10
2018-07-03T11:00:33.481Z,82.20
2018-07-03T11:03:02.652Z,78.60
2018-07-03T11:05:31.836Z,79.20
2018-07-03T11:08:01.976Z,78.70
2018-07-03T11:10:32.183Z,81.60
2018-07-03T11:13:01.364Z,80.70
2018-07-03T11:15:30.500Z,80.00
2018-07-03T11:17:59.643Z,80.20
2018-07-03T11:20:28.786Z,76.90
2018-07-03T11:22:57.912Z,77.80
2018-07-03T11:25:27.033Z,77.10
2018-07-03T11:27:56.185Z,77.50
2018-07-03T11:30:25.305Z,79.00
2018-07-03T11:32:54.421Z,80.30
2018-07-03T11:35:23.565Z,81.30
2018-07-03T11:37:52.814Z,84.30
2018-07-03T11:40:21.958Z,79.00
2018-07-03T11:42:51.093Z,79.40
2018-07-03T11:45:20.261Z,80.00
2018-07-03T11:47:49.466Z,80.20
2018-07-03T11:50:18.578Z,80.80
2018-07-03T11:52:47.741Z,84.40
2018-07-03T11:55:16.877Z,81.60
2018-07-03T11:57:46.071Z,80.00
2018-07-03T12:00:15.258Z,78.50
2018-07-03T12:02:44.433Z,86.30
2018-07-03T12:05:13.593Z,78.30
2018-07-03T12:07:43.009Z,76.50
2018-07-03T12:10:12.162Z,79.20
2018-07-03T12:12:41.346Z,80.00
2018-07-03T12:15:10.542Z,82.20
2018-07-03T12:17:39.728Z,82.60
2018-07-03T12:20:08.861Z,80.80
2018-07-03T12:22:38.038Z,78.80
2018-07-03T12:25:07.237Z,75.40
2018-07-03T12:27:36.412Z,78.10
2018-07-03T12:30:08.278Z,80.80
2018-07-03T12:32:37.500Z,79.90
2018-07-03T12:35:07.036Z,80.40
2018-07-03T12:37:36.222Z,81.80
2018-07-03T12:40:05.685Z,80.00
2018-07-03T12:42:35.018Z,77.10
2018-07-03T12:45:04.385Z,81.10
2018-07-03T12:47:33.547Z,81.00
2018-07-03T12:50:02.931Z,75.40
2018-07-03T12:52:32.118Z,80.20
2018-07-03T12:55:01.236Z,76.00
2018-07-03T12:57:30.422Z,79.00
2018-07-03T12:59:59.561Z,78.20
2018-07-03T13:02:28.753Z,75.10
2018-07-03T13:04:57.927Z,73.10
2018-07-03T13:07:27.076Z,74.90
2018-07-03T13:09:56.184Z,74.70
2018-07-03T13:12:25.365Z,78.90
2018-07-03T13:14:54.556Z,73.00
2018-07-03T13:17:23.926Z,76.90
2018-07-03T13:19:53.078Z,70.70
2018-07-03T13:22:22.295Z,70.80
2018-07-03T13:24:51.468Z,74.30
2018-07-03T13:27:20.631Z,73.90
2018-07-03T13:29:50.603Z,72.30
2018-07-03T13:32:19.939Z,73.10
2018-07-03T13:34:49.262Z,72.00
2018-07-03T13:37:18.476Z,73.90
2018-07-03T13:39:48.227Z,71.00
2018-07-03T13:42:17.489Z,71.60
2018-07-03T13:44:46.634Z,68.40
2018-07-03T13:47:15.789Z,67.20
2018-07-03T13:49:45.503Z,69.30
2018-07-03T13:52:15.516Z,65.60
2018-07-03T13:54:45.602Z,66.40
2018-07-03T13:57:15.686Z,67.10
2018-07-03T13:59:45.772Z,66.50
2018-07-03T14:02:15.522Z,67.90
2018-07-03T14:04:45.609Z,67.60
2018-07-03T14:07:15.201Z,70.80
2018-07-03T14:09:45.097Z,66.30
2018-07-03T14:12:17.025Z,66.10
2018-07-03T14:14:47.158Z,67.60
2018-07-03T14:17:17.121Z,67.70
2018-07-03T14:19:53.805Z,66.10
2018-07-03T14:22:27.051Z,67.40
2018-07-03T14:25:06.845Z,67.00
2018-07-03T14:30:36.740Z,67.30
2018-07-03T14:33:09.470Z,67.80
2018-07-03T14:35:52.916Z,64.80
2018-07-03T14:38:28.556Z,64.00
2018-07-03T14:41:04.521Z,64.00
2018-07-03T14:43:39.785Z,62.90
2018-07-03T14:46:15.695Z,63.40
2018-07-03T14:48:52.520Z,61.70
2018-07-03T14:51:28.345Z,62.90
2018-07-03T14:54:05.412Z,65.30
2018-07-03T14:56:44.399Z,64.20
2018-07-03T15:03:55.213Z,65.30
2018-07-03T15:06:32.864Z,65.10
2018-07-03T15:09:13.262Z,68.30
2018-07-03T15:11:43.950Z,66.50
2018-07-03T15:14:13.206Z,62.60
2018-07-03T15:16:42.349Z,63.00
2018-07-03T15:19:18.571Z,66.00
2018-07-03T15:21:47.715Z,63.50
2018-07-03T15:24:16.953Z,62.70
2018-07-03T15:26:46.372Z,64.60
2018-07-03T15:29:15.510Z,64.80
2018-07-03T15:31:44.788Z,62.50
2018-07-03T15:34:13.910Z,64.00
2018-07-03T15:36:43.109Z,62.00
2018-07-03T15:39:13.569Z,64.10
2018-07-03T15:41:42.978Z,61.60
2018-07-03T15:44:23.199Z,62.90
2018-07-03T15:46:52.517Z,62.20
2018-07-03T15:49:21.907Z,63.00
2018-07-03T15:51:51.120Z,62.60
2018-07-03T15:54:20.506Z,64.30
2018-07-03T15:56:49.932Z,62.60
2018-07-03T15:59:19.310Z,60.00
2018-07-03T16:01:49.129Z,59.90
2018-07-03T16:07:32.825Z,62.20
2018-07-03T16:10:02.783Z,59.90
2018-07-03T16:12:32.869Z,62.30
2018-07-03T16:15:03.270Z,62.30
2018-07-03T16:17:33.287Z,63.40
2018-07-03T16:20:08.795Z,64.20
2018-07-03T16:22:38.966Z,64.40
2018-07-03T16:25:09.711Z,62.50
2018-07-03T16:27:42.317Z,62.20
2018-07-03T16:30:12.272Z,63.70
2018-07-03T16:32:41.609Z,65.30
2018-07-03T16:35:10.752Z,63.10
2018-07-03T16:37:39.962Z,63.90
2018-07-03T16:40:09.145Z,63.50
2018-07-03T16:42:38.321Z,64.70
2018-07-03T16:45:07.497Z,65.00
2018-07-03T16:47:36.654Z,66.60
2018-07-03T16:50:05.955Z,65.90
2018-07-03T16:52:35.078Z,64.30
2018-07-03T16:55:04.262Z,65.70
2018-07-03T16:57:33.428Z,64.10
2018-07-03T17:00:02.621Z,65.00
2018-07-03T17:02:33.254Z,65.20
2018-07-03T17:05:02.538Z,65.00
2018-07-03T17:07:32.075Z,65.00
2018-07-03T17:10:01.313Z,63.60
2018-07-03T17:12:37.032Z,64.80
2018-07-03T17:15:12.977Z,64.20
2018-07-03T17:17:46.125Z,63.00
2018-07-03T17:20:22.446Z,64.40
2018-07-03T17:22:55.738Z,63.90
2018-07-03T17:25:29.586Z,65.10
2018-07-03T17:28:10.842Z,65.30
2018-07-03T17:30:46.008Z,63.60
2018-07-03T17:33:23.134Z,63.90
2018-07-03T17:36:03.837Z,63.60
2018-07-03T17:38:42.045Z,65.00
2018-07-03T17:41:24.253Z,64.60
2018-07-03T17:44:11.604Z,66.20
2018-07-03T17:46:48.706Z,66.00
2018-07-03T17:49:31.759Z,65.90
2018-07-03T17:52:16.045Z,65.20
2018-07-03T17:54:52.833Z,65.10
2018-07-03T17:57:31.303Z,65.30
2018-07-03T18:00:09.975Z,66.00
2018-07-03T18:02:44.069Z,65.00
2018-07-03T18:05:25.964Z,66.10
2018-07-03T18:08:01.513Z,66.70
2018-07-03T18:10:40.476Z,66.40
2018-07-03T18:13:17.343Z,65.70
2018-07-03T18:15:56.478Z,66.40
2018-07-03T18:18:33.941Z,64.70
2018-07-03T18:21:08.315Z,65.00
2018-07-03T18:23:47.110Z,65.60
2018-07-03T18:26:29.932Z,65.90
2018-07-03T18:29:06.207Z,66.20
2018-07-03T18:31:49.469Z,66.60
2018-07-03T18:34:24.907Z,67.60
2018-07-03T18:37:02.167Z,67.20
2018-07-03T18:39:46.294Z,68.10
2018-07-03T18:42:23.553Z,67.70
2018-07-03T18:45:00.865Z,68.20
2018-07-03T18:47:41.448Z,68.30
2018-07-03T18:50:21.775Z,68.10
2018-07-03T18:52:59.613Z,68.80
2018-07-03T18:55:36.151Z,68.40
2018-07-03T18:58:20.765Z,69.50
2018-07-03T19:03:37.781Z,72.00
2018-07-03T19:06:11.716Z,79.60
2018-07-03T19:08:45.786Z,82.70
2018-07-03T19:11:28.532Z,83.90
2018-07-03T19:14:08.805Z,84.10
2018-07-03T19:16:43.501Z,84.80
2018-07-03T19:19:24.858Z,85.90
2018-07-03T19:22:00.405Z,86.70
2018-07-03T19:24:48.383Z,86.70
2018-07-03T19:27:23.035Z,88.40
2018-07-03T19:30:08.461Z,89.70
2018-07-03T19:32:51.140Z,90.40
2018-07-03T19:35:21.033Z,90.30
2018-07-03T19:37:53.403Z,91.00
2018-07-03T19:40:30.776Z,91.20
2018-07-03T19:43:23.828Z,91.50
2018-07-03T19:46:01.456Z,91.90
2018-07-03T19:48:31.860Z,91.90
2018-07-03T19:51:01.138Z,92.20
2018-07-03T19:53:30.281Z,92.70
2018-07-03T19:56:00.083Z,92.90
2018-07-03T19:58:29.237Z,93.30
2018-07-03T20:00:58.477Z,93.70
2018-07-03T20:03:27.628Z,94.30
2018-07-03T20:05:56.992Z,94.30
2018-07-03T20:08:26.140Z,94.60
2018-07-03T20:10:55.336Z,95.20
2018-07-03T20:13:24.489Z,95.40
2018-07-03T20:15:53.689Z,96.80
2018-07-03T20:18:24.164Z,96.90
2018-07-03T20:20:57.302Z,98.60
2018-07-03T20:23:32.565Z,99.90
2018-07-03T20:26:07.459Z,99.90
2018-07-03T20:28:43.879Z,99.90
2018-07-03T20:31:25.727Z,99.90
2018-07-03T20:34:00.920Z,99.90
2018-07-03T20:36:35.692Z,99.90
2018-07-03T20:39:13.301Z,99.90
2018-07-03T20:44:29.637Z,99.90
2018-07-03T20:47:22.616Z,99.90
2018-07-03T20:50:13.015Z,99.90
2018-07-03T20:52:46.986Z,99.90
2018-07-03T20:55:21.679Z,99.90
2018-07-03T20:58:06.572Z,99.90
2018-07-03T21:00:42.965Z,99.90
2018-07-03T21:03:18.583Z,99.90
2018-07-03T21:05:54.536Z,99.90
2018-07-03T21:08:40.103Z,99.90
2018-07-03T21:11:17.557Z,99.90
2018-07-03T21:14:01.251Z,99.90
2018-07-03T21:16:42.915Z,99.90
2018-07-03T21:19:30.502Z,99.90
2018-07-03T21:22:01.858Z,99.90
2018-07-03T21:24:35.620Z,99.90
2018-07-03T21:27:16.452Z,99.90
2018-07-03T21:29:56.253Z,99.90
2018-07-03T21:32:34.040Z,99.90
2018-07-03T21:35:10.566Z,99.90
2018-07-03T21:37:51.235Z,99.90
2018-07-03T21:40:31.370Z,99.90
2018-07-03T21:43:15.464Z,99.90
2018-07-03T21:45:51.748Z,99.90
2018-07-03T21:48:27.033Z,99.90
2018-07-03T21:51:05.697Z,99.90
2018-07-03T21:53:42.230Z,99.90
2018-07-03T21:56:19.100Z,99.90
2018-07-03T21:58:53.313Z,99.90
2018-07-03T22:01:31.813Z,99.90
2018-07-03T22:04:09.904Z,99.90
2018-07-03T22:06:42.732Z,99.90
2018-07-03T22:09:16.142Z,99.90
2018-07-03T22:11:49.961Z,99.90
2018-07-03T22:14:26.114Z,99.90
2018-07-03T22:17:03.410Z,99.90
2018-07-03T22:19:38.344Z,99.90
2018-07-03T22:22:12.296Z,99.90
2018-07-03T22:24:50.442Z,99.90
2018-07-03T22:27:22.603Z,99.90
2018-07-03T22:29:57.558Z,99.90
2018-07-03T22:32:28.304Z,99.90
2018-07-03T22:34:59.052Z,99.90
2018-07-03T22:37:29.952Z,99.90
2018-07-03T22:40:00.165Z,99.90
2018-07-03T22:42:32.707Z,99.90
2018-07-03T22:45:03.809Z,99.90
2018-07-03T22:47:35.135Z,99.90
2018-07-03T22:50:06.834Z,99.90
2018-07-03T22:52:39.942Z,99.90
2018-07-03T22:55:11.280Z,99.90
2018-07-03T22:57:44.346Z,99.90
2018-07-03T23:00:16.877Z,99.90
2018-07-03T23:02:50.120Z,99.90
2018-07-03T23:05:20.518Z,99.90
2018-07-03T23:07:52.830Z,99.90
2018-07-03T23:10:23.363Z,99.90
2018-07-03T23:12:56.023Z,99.90
2018-07-03T23:15:28.040Z,99.90
2018-07-03T23:18:08.566Z,99.90
2018-07-03T23:20:39.734Z,99.90
2018-07-03T23:23:13.205Z,99.90
2018-07-03T23:25:53.045Z,99.90
2018-07-03T23:28:32.614Z,99.90
2018-07-03T23:31:17.445Z,99.90
2018-07-03T23:33:58.414Z,99.90
2018-07-03T23:39:18.788Z,99.90
2018-07-03T23:41:57.336Z,99.90
2018-07-03T23:44:32.849Z,99.90
2018-07-03T23:50:14.703Z,99.90
2018-07-03T23:56:03.169Z,99.90
2018-07-03T23:59:00.862Z,99.90
